KESN/ESN METAR and TAF weather

Enter ICAO airport designator
Station Type Date Time Source
KESN METAR 2020/01/24 03:24 UTC NOAA

KESN 240324Z AUTO 07003KT 10SM CLR 02/M02 A3038 RMK AO2 T00161020


Station Type Date Time Source
KESN Decoded METAR 2020/01/24 03:24 UTC NOAA

Easton / Newman Field, MD, United States (KESN) 38-48N 076-04W
Jan 23, 2020 - 10:24 PM EST / 2020.01.24 0324 UTC
Wind: from the ENE (070 degrees) at 3 MPH (3 KT):0
Visibility: 10 mile(s):0
Sky conditions: clear
Temperature: 34.9 F (1.6 C)
Dew Point: 28.4 F (-2.0 C)
Relative Humidity: 76%
Pressure (altimeter): 30.38 in. Hg (1028 hPa)
ob: KESN 240324Z AUTO 07003KT 10SM CLR 02/M02 A3038 RMK AO2 T00161020
cycle: 3

Station Type Date Time Source
KESN TAF UTC NOAA

Error!

Example: see airport list